createdAt,value
2023-05-06T00:00:33.626Z,9.3
2023-05-06T00:02:39.454Z,8.2
2023-05-06T00:06:53.898Z,8.2
2023-05-06T00:08:59.673Z,7
2023-05-06T00:11:05.425Z,7.2
2023-05-06T00:30:00.103Z,7.9
2023-05-06T00:32:05.910Z,8.4
2023-05-06T00:34:11.550Z,7.7
2023-05-06T00:36:20.260Z,8.1
2023-05-06T00:38:26.062Z,7.3
2023-05-06T00:47:53.388Z,7.7
2023-05-06T00:54:13.556Z,8.9
2023-05-06T00:56:20.762Z,11.1
2023-05-06T00:58:25.131Z,10
2023-05-06T01:06:51.154Z,11.9
2023-05-06T01:08:56.905Z,12.5
2023-05-06T01:11:02.756Z,10.2
2023-05-06T01:13:08.646Z,9.8
2023-05-06T01:17:20.199Z,10.4
2023-05-06T01:19:28.988Z,10.8
2023-05-06T01:21:34.897Z,10.6
2023-05-06T01:25:46.307Z,9.2
2023-05-06T01:27:52.065Z,10.1
2023-05-06T01:29:57.777Z,10.3
2023-05-06T01:32:03.621Z,9.5
2023-05-06T01:34:12.369Z,10.1
2023-05-06T01:38:23.865Z,9.5
2023-05-06T01:39:28.207Z,7.8
2023-05-06T01:41:33.944Z,8.4
2023-05-06T01:43:39.659Z,9.7
2023-05-06T01:45:45.420Z,8.4
2023-05-06T01:49:59.867Z,10.2
2023-05-06T01:52:05.620Z,9.6
2023-05-06T02:04:43.070Z,10.5
2023-05-06T02:08:54.534Z,9
2023-05-06T02:13:06.059Z,10.3
2023-05-06T02:19:26.219Z,12.3
2023-05-06T02:21:31.979Z,11.9
2023-05-06T02:23:37.704Z,9
2023-05-06T02:25:43.467Z,9.4
2023-05-06T02:32:03.783Z,10.6
2023-05-06T02:34:09.635Z,9.8
2023-05-06T02:36:15.433Z,10.3
2023-05-06T02:37:19.783Z,9.7
2023-05-06T02:43:37.000Z,12.2
2023-05-06T02:47:51.532Z,13.8
2023-05-06T02:49:57.188Z,11.8
2023-05-06T02:52:03.013Z,11.8
2023-05-06T02:56:14.530Z,13
2023-05-06T02:58:20.263Z,13.4
2023-05-06T03:04:40.872Z,12.6
2023-05-06T03:06:46.518Z,15.2
2023-05-06T03:10:58.004Z,13.5
2023-05-06T03:13:03.801Z,15.3
2023-05-06T03:15:12.783Z,12.1
2023-05-06T03:17:18.216Z,12
2023-05-06T03:19:23.976Z,12.9
2023-05-06T03:21:29.765Z,12.9
2023-05-06T03:23:35.473Z,11
2023-05-06T03:25:41.223Z,12.2
2023-05-06T03:27:46.979Z,12.8
2023-05-06T03:34:07.190Z,12.3
2023-05-06T03:36:30.848Z,12.4
2023-05-06T03:38:36.607Z,11.3
2023-05-06T03:40:42.359Z,10.4
2023-05-06T03:47:02.566Z,11.2
2023-05-06T03:49:08.319Z,9.7
2023-05-06T03:51:14.088Z,9.2
2023-05-06T03:53:19.804Z,11.2
2023-05-06T03:55:25.580Z,11.7
2023-05-06T03:59:40.086Z,9.6
2023-05-06T04:01:45.921Z,10.1
2023-05-06T04:05:57.359Z,10.7
2023-05-06T04:08:03.137Z,11.1
2023-05-06T04:10:08.871Z,11.6
2023-05-06T04:22:46.790Z,13.1
2023-05-06T04:24:52.654Z,10.7
2023-05-06T04:27:01.451Z,14.3
2023-05-06T04:29:07.173Z,13.1
2023-05-06T04:32:17.465Z,13
2023-05-06T04:34:23.309Z,15.1
2023-05-06T04:36:29.145Z,13.1
2023-05-06T04:38:34.880Z,13
2023-05-06T04:40:43.679Z,15.1
2023-05-06T04:47:01.165Z,16.5
2023-05-06T04:49:06.892Z,13.6
2023-05-06T04:53:18.575Z,16.2
2023-05-06T04:57:33.318Z,13.5
2023-05-06T04:59:39.149Z,15.1
2023-05-06T05:01:44.985Z,14.7
2023-05-06T05:03:50.856Z,16.7
2023-05-06T05:05:56.652Z,15.3
2023-05-06T05:08:02.509Z,14.1
2023-05-06T05:10:11.403Z,16.2
2023-05-06T05:12:17.176Z,14.7
2023-05-06T05:14:23.004Z,13.5
2023-05-06T05:18:34.567Z,14.2
2023-05-06T05:20:40.309Z,14.2
2023-05-06T05:22:46.162Z,13.4
2023-05-06T05:27:02.380Z,13.9
2023-05-06T05:29:08.106Z,11.6
2023-05-06T05:30:12.501Z,13
2023-05-06T05:32:18.292Z,12.7
2023-05-06T05:38:38.731Z,14.9
2023-05-06T05:42:50.315Z,14.2
2023-05-06T05:44:56.170Z,12.5
2023-05-06T05:51:13.612Z,12.3
2023-05-06T05:53:22.326Z,12.8
2023-05-06T05:55:28.059Z,12.2
2023-05-06T05:57:33.840Z,15.9
2023-05-06T05:59:39.573Z,11.2
2023-05-06T06:01:45.312Z,10
2023-05-06T06:03:51.207Z,12.2
2023-05-06T06:05:56.859Z,10.7
2023-05-06T06:08:05.582Z,11.9
2023-05-06T06:10:11.353Z,11.1
2023-05-06T06:12:17.115Z,9.9
2023-05-06T06:14:22.845Z,10.1
2023-05-06T06:16:28.670Z,9.3
2023-05-06T06:18:34.388Z,10.2
2023-05-06T06:20:40.139Z,10.1
2023-05-06T06:22:48.912Z,12.6
2023-05-06T06:24:54.674Z,9.9
2023-05-06T06:27:00.452Z,10.4
2023-05-06T06:28:04.789Z,10
2023-05-06T06:30:10.559Z,10.1
2023-05-06T06:32:16.397Z,9.8
2023-05-06T06:34:22.122Z,8.8
2023-05-06T06:38:36.665Z,8.5
2023-05-06T06:40:42.461Z,9.3
2023-05-06T06:44:53.973Z,6.8
2023-05-06T06:46:59.753Z,8.6
2023-05-06T06:49:05.497Z,8
2023-05-06T06:51:14.247Z,7.5
2023-05-06T06:55:25.752Z,8
2023-05-06T06:57:31.490Z,6.9
2023-05-06T06:59:37.248Z,8.2
2023-05-06T07:01:43.063Z,7.8
2023-05-06T07:03:48.787Z,8.8
2023-05-06T07:08:03.201Z,7.6
2023-05-06T07:10:08.915Z,7.9
2023-05-06T07:12:14.686Z,8.1
2023-05-06T07:18:31.890Z,7.8
2023-05-06T07:20:40.601Z,7.7
2023-05-06T07:27:15.587Z,8.3
2023-05-06T07:29:21.338Z,6.4
2023-05-06T07:31:27.110Z,8.7
2023-05-06T07:33:35.837Z,7.5
2023-05-06T07:35:41.577Z,8.6
2023-05-06T07:37:47.344Z,9.8
2023-05-06T07:39:53.105Z,8.4
2023-05-06T07:41:58.882Z,8.2
2023-05-06T07:46:10.446Z,8.5
2023-05-06T07:52:30.677Z,9.3
2023-05-06T07:54:36.435Z,9.2
2023-05-06T07:56:42.203Z,9.7
2023-05-06T07:58:47.938Z,10.1
2023-05-06T08:00:53.715Z,8.5
2023-05-06T08:03:02.552Z,9.1
2023-05-06T08:05:08.351Z,10.3
2023-05-06T08:09:23.103Z,10.6
2023-05-06T08:11:25.524Z,12.9
2023-05-06T08:15:37.048Z,10.1
2023-05-06T08:17:45.845Z,10.6
2023-05-06T08:19:51.561Z,9.3
2023-05-06T08:21:57.346Z,10.5
2023-05-06T08:23:01.708Z,10.7
2023-05-06T08:25:07.680Z,10.7
2023-05-06T08:27:13.219Z,10.9
2023-05-06T08:29:18.972Z,11.8
2023-05-06T08:31:27.740Z,11.8
2023-05-06T08:33:33.503Z,9.8
2023-05-06T08:46:11.004Z,10.8
2023-05-06T08:52:28.262Z,10.2
2023-05-06T08:58:45.616Z,12
2023-05-06T09:00:54.329Z,11.4
2023-05-06T09:03:00.181Z,12.1
2023-05-06T09:07:11.534Z,9.2
2023-05-06T09:09:17.270Z,11.4
2023-05-06T09:13:28.777Z,10.5
2023-05-06T09:17:43.296Z,10.4
2023-05-06T09:19:49.002Z,10.1
2023-05-06T09:20:53.341Z,9.7
2023-05-06T09:22:59.084Z,9.4
2023-05-06T09:25:04.838Z,10.8
2023-05-06T09:27:11.192Z,10.7
2023-05-06T09:29:19.276Z,9.7
2023-05-06T09:31:25.073Z,10.3
2023-05-06T09:33:30.716Z,9.6
2023-05-06T09:46:08.034Z,8.4
2023-05-06T09:56:36.517Z,7.3
2023-05-06T09:58:45.185Z,9.2
2023-05-06T10:00:50.905Z,8.6
2023-05-06T10:05:02.488Z,6.6
2023-05-06T10:07:08.021Z,6.3
2023-05-06T10:13:28.098Z,5.5
2023-05-06T10:15:33.808Z,6.4
2023-05-06T10:17:39.526Z,7
2023-05-06T10:18:43.842Z,5.8
2023-05-06T10:20:49.551Z,5.4
2023-05-06T10:22:55.247Z,4.7
2023-05-06T10:27:09.652Z,5.2
2023-05-06T10:29:15.325Z,4.8
2023-05-06T10:31:21.054Z,4.4
2023-05-06T10:33:26.732Z,4.3
2023-05-06T10:35:32.432Z,3.9
2023-05-06T10:37:38.115Z,3.9
2023-05-06T10:39:43.832Z,3.3
2023-05-06T10:41:52.495Z,4.5
2023-05-06T10:43:58.196Z,4.7
2023-05-06T10:46:03.931Z,4.4
2023-05-06T10:48:09.618Z,4.4
2023-05-06T10:52:20.998Z,5.7
2023-05-06T10:54:26.715Z,5.6
2023-05-06T10:58:41.163Z,4
2023-05-06T11:02:52.686Z,5.2
2023-05-06T11:04:58.288Z,5.2
2023-05-06T11:09:09.743Z,4.8
2023-05-06T11:11:18.446Z,5
2023-05-06T11:13:24.230Z,4.3
2023-05-06T11:18:01.063Z,4
2023-05-06T11:22:12.506Z,4.5
2023-05-06T11:24:21.213Z,3.9
2023-05-06T11:26:28.562Z,3.3
2023-05-06T11:28:34.283Z,4.3
2023-05-06T11:30:40.041Z,4.8
2023-05-06T11:34:51.458Z,5.8
2023-05-06T11:39:05.926Z,5.5
2023-05-06T11:41:11.645Z,3.4
2023-05-06T11:43:17.350Z,4.4
2023-05-06T11:47:28.873Z,3.1
2023-05-06T11:49:36.822Z,4.3
2023-05-06T11:51:40.297Z,3.3
2023-05-06T11:53:49.036Z,4.3
2023-05-06T11:58:00.518Z,3.6
2023-05-06T12:06:24.608Z,3.3
2023-05-06T12:12:43.698Z,4.2
2023-05-06T12:22:13.975Z,2.8
2023-05-06T12:24:19.731Z,3.1
2023-05-06T12:26:25.452Z,3
2023-05-06T12:41:08.619Z,3.2
2023-05-06T12:43:14.317Z,5.1
2023-05-06T12:45:20.081Z,2.4
2023-05-06T12:47:25.957Z,3.3
2023-05-06T12:49:31.523Z,1.6
2023-05-06T12:51:40.285Z,2.6
2023-05-06T12:53:45.976Z,2.7
2023-05-06T12:55:51.744Z,1.9
2023-05-06T12:57:58.045Z,1.7
2023-05-06T13:00:03.203Z,2.7
2023-05-06T13:02:08.963Z,2.5
2023-05-06T13:04:14.650Z,2
2023-05-06T13:06:23.402Z,2.6
2023-05-06T13:08:29.105Z,2.7
2023-05-06T13:10:34.856Z,2.5
2023-05-06T13:20:05.428Z,3.1
2023-05-06T13:22:10.911Z,3
2023-05-06T13:24:16.688Z,2.4
2023-05-06T13:26:22.413Z,1.8
2023-05-06T13:28:28.185Z,2.1
2023-05-06T13:30:33.920Z,1.3
2023-05-06T13:32:39.732Z,1.4
2023-05-06T13:34:48.401Z,1.6
2023-05-06T13:36:54.154Z,1.9
2023-05-06T13:38:59.936Z,1.6
2023-05-06T13:41:05.674Z,2.2
2023-05-06T13:43:11.427Z,2.2
2023-05-06T13:45:17.131Z,2.2
2023-05-06T13:47:22.905Z,1.7
2023-05-06T13:49:31.641Z,2.1
2023-05-06T13:51:37.389Z,2
2023-05-06T14:00:00.355Z,1.6
2023-05-06T14:02:09.015Z,2.1
2023-05-06T14:09:30.666Z,1.9
2023-05-06T14:11:36.429Z,3.7
2023-05-06T14:13:42.170Z,1.8
2023-05-06T14:17:56.698Z,3.1
2023-05-06T14:28:25.388Z,2.6
2023-05-06T14:34:45.618Z,2.8
2023-05-06T14:36:51.367Z,1.8
2023-05-06T14:38:57.119Z,2
2023-05-06T14:43:08.636Z,2.2
2023-05-06T14:47:23.171Z,1.2
2023-05-06T14:49:28.888Z,1.9
2023-05-06T14:51:34.647Z,2.1
2023-05-06T14:53:40.393Z,2.1
2023-05-06T15:02:06.397Z,2.5
2023-05-06T15:08:49.034Z,3
2023-05-06T15:15:09.395Z,2.7
2023-05-06T15:17:15.032Z,2.3
2023-05-06T15:19:20.768Z,1.8
2023-05-06T15:21:26.539Z,2.7
2023-05-06T15:23:32.285Z,2.4
2023-05-06T15:25:38.377Z,2.2
2023-05-06T15:27:43.808Z,3.1
2023-05-06T15:29:52.548Z,4
2023-05-06T15:31:58.346Z,6.7
2023-05-06T15:34:04.058Z,3.4
2023-05-06T15:36:09.828Z,6.8
2023-05-06T15:42:27.085Z,3
2023-05-06T15:46:41.671Z,2.6
2023-05-06T15:48:47.339Z,2.4
2023-05-06T15:50:53.087Z,3.4
2023-05-06T15:52:58.839Z,2
2023-05-06T15:55:04.627Z,2.6
2023-05-06T15:57:10.394Z,1.8
2023-05-06T16:01:44.936Z,2.1
2023-05-06T16:04:35.146Z,4.6
2023-05-06T16:06:40.783Z,2.7
2023-05-06T16:19:18.366Z,3.7
2023-05-06T16:21:24.111Z,3.1
2023-05-06T16:23:29.899Z,2
2023-05-06T16:27:44.417Z,4.3
2023-05-06T16:29:50.180Z,2.8
2023-05-06T16:31:55.992Z,2.8
2023-05-06T16:34:01.747Z,5.1
2023-05-06T16:36:07.796Z,3.8
2023-05-06T16:38:13.276Z,4.7
2023-05-06T16:40:19.086Z,3.9
2023-05-06T16:42:27.817Z,4.1
2023-05-06T16:44:33.612Z,3.5
2023-05-06T16:48:45.242Z,3.1
2023-05-06T16:50:50.924Z,3.4
2023-05-06T16:52:56.699Z,3.6
2023-05-06T16:55:02.498Z,2.4
2023-05-06T16:57:11.257Z,2.2
2023-05-06T16:59:17.455Z,2.5
2023-05-06T17:04:32.988Z,2.2
2023-05-06T17:06:38.820Z,1.9
2023-05-06T17:08:44.608Z,2.9
2023-05-06T17:10:53.363Z,2.4
2023-05-06T17:15:05.110Z,2.4
2023-05-06T17:19:16.525Z,3.3
2023-05-06T17:23:28.140Z,2.4
2023-05-06T17:25:36.906Z,3.8
2023-05-06T17:27:42.685Z,3.7
2023-05-06T17:29:50.109Z,4.3
2023-05-06T17:31:55.835Z,5.3
2023-05-06T17:34:01.650Z,5.1
2023-05-06T17:36:07.438Z,9
2023-05-06T17:38:13.231Z,9.9
2023-05-06T17:40:22.033Z,10.4
2023-05-06T17:42:27.784Z,10.1
2023-05-06T17:44:33.581Z,11.9
2023-05-06T17:46:39.424Z,12.3
2023-05-06T17:48:45.181Z,11.3
2023-05-06T17:52:56.766Z,13.4
2023-05-06T17:55:11.807Z,11.2
2023-05-06T17:59:17.123Z,11.6
2023-05-06T18:04:33.047Z,13.3
2023-05-06T18:06:38.876Z,12.5
2023-05-06T18:08:47.604Z,14.5
2023-05-06T18:10:53.410Z,14.6
2023-05-06T18:12:59.242Z,12.9
2023-05-06T18:15:05.040Z,12.8
2023-05-06T18:17:10.823Z,14.3
2023-05-06T18:19:16.637Z,12.6
2023-05-06T18:21:22.424Z,13.8
2023-05-06T18:23:31.704Z,13
2023-05-06T18:31:54.967Z,13.9
2023-05-06T18:34:00.745Z,15.2
2023-05-06T18:38:15.303Z,17.5
2023-05-06T18:40:21.132Z,8.4
2023-05-06T18:42:26.919Z,5
2023-05-06T18:44:32.714Z,3.7
2023-05-06T18:48:44.292Z,3.5
2023-05-06T18:50:50.095Z,4.6
2023-05-06T18:59:41.720Z,4.6
2023-05-06T19:01:47.531Z,8.1
2023-05-06T19:03:53.381Z,6.6
2023-05-06T19:08:07.866Z,3.8
2023-05-06T19:10:13.646Z,4.2
2023-05-06T19:12:19.431Z,6
2023-05-06T19:14:25.643Z,4.1
2023-05-06T19:20:45.546Z,4.8
2023-05-06T19:27:02.977Z,4.7
2023-05-06T19:29:08.751Z,4.3
2023-05-06T19:31:14.587Z,4.6
2023-05-06T19:33:20.321Z,4.7
2023-05-06T19:35:29.111Z,4.4
2023-05-06T19:37:34.891Z,5.8
2023-05-06T19:39:40.680Z,5.1
2023-05-06T19:41:46.458Z,6.2
2023-05-06T19:45:58.127Z,3.3
2023-05-06T19:52:18.430Z,4.1
2023-05-06T19:54:24.217Z,5
2023-05-06T19:55:28.601Z,3.4
2023-05-06T19:57:34.380Z,8.1
2023-05-06T19:59:40.187Z,14.8
2023-05-06T20:03:54.796Z,4.9
2023-05-06T20:06:00.535Z,11.4
2023-05-06T20:08:06.349Z,8
2023-05-06T20:12:17.900Z,5.6
2023-05-06T20:14:23.726Z,7
2023-05-06T20:16:29.534Z,6.1
2023-05-06T20:18:38.267Z,6.5
2023-05-06T20:22:49.809Z,6.6
2023-05-06T20:24:55.598Z,7.7
2023-05-06T20:27:01.418Z,15.4
2023-05-06T20:31:13.000Z,6.9
2023-05-06T20:33:21.745Z,4.9
2023-05-06T20:35:27.513Z,6.8
2023-05-06T20:37:33.300Z,7.5
2023-05-06T20:39:39.126Z,6.7
2023-05-06T20:41:44.900Z,5.7
2023-05-06T20:45:56.567Z,5.6
2023-05-06T20:50:10.999Z,8
2023-05-06T20:52:16.838Z,9.9
2023-05-06T20:53:21.170Z,5.5
2023-05-06T20:55:27.019Z,5.5
2023-05-06T20:57:32.776Z,4.5
2023-05-06T20:59:38.561Z,5.5
2023-05-06T21:03:53.284Z,5.7
2023-05-06T21:14:22.088Z,6.6
2023-05-06T21:16:30.849Z,5.4
2023-05-06T21:18:36.754Z,5
2023-05-06T21:20:42.433Z,6.2
2023-05-06T21:24:53.990Z,6.8
2023-05-06T21:26:59.775Z,6.4
2023-05-06T21:31:14.370Z,8.9
2023-05-06T21:33:20.165Z,7.2
2023-05-06T21:35:25.924Z,8.2
2023-05-06T21:37:31.746Z,7.7
2023-05-06T21:39:37.509Z,9
2023-05-06T21:41:43.285Z,7.9
2023-05-06T21:43:49.087Z,9.5
2023-05-06T21:45:57.855Z,9.6
2023-05-06T21:48:03.690Z,9.2
2023-05-06T21:50:09.435Z,7.6
2023-05-06T21:51:13.795Z,8.3
2023-05-06T21:53:19.610Z,8
2023-05-06T21:55:25.402Z,8.3
2023-05-06T21:57:31.174Z,10.2
2023-05-06T21:59:39.945Z,10.8
2023-05-06T22:01:45.777Z,8.5
2023-05-06T22:03:51.661Z,9
2023-05-06T22:05:57.342Z,20.2
2023-05-06T22:08:03.111Z,12.6
2023-05-06T22:10:08.907Z,11.7
2023-05-06T22:14:26.970Z,10.3
2023-05-06T22:16:29.307Z,10.2
2023-05-06T22:18:34.994Z,11
2023-05-06T22:20:40.769Z,10.6
2023-05-06T22:22:46.587Z,9.9
2023-05-06T22:24:52.367Z,10.5
2023-05-06T22:26:58.121Z,10.9
2023-05-06T22:29:06.900Z,9.2
2023-05-06T22:31:12.698Z,9.4
2023-05-06T22:45:56.176Z,9
2023-05-06T22:48:01.997Z,9.1
2023-05-06T22:50:33.223Z,11.3
2023-05-06T22:52:39.010Z,11.1
2023-05-06T22:54:44.807Z,8.2
2023-05-06T22:56:53.600Z,9.4
2023-05-06T22:58:59.331Z,9.6
2023-05-06T23:01:05.145Z,8.2
2023-05-06T23:05:16.686Z,9.5
2023-05-06T23:07:22.484Z,9.1
2023-05-06T23:09:28.259Z,9.6
2023-05-06T23:11:37.008Z,10
2023-05-06T23:13:42.787Z,9
2023-05-06T23:17:54.427Z,9.2
2023-05-06T23:20:00.234Z,7.9
2023-05-06T23:22:05.977Z,8.7
2023-05-06T23:24:11.751Z,7.9
2023-05-06T23:26:20.485Z,9.4
2023-05-06T23:28:26.282Z,6.8
2023-05-06T23:30:32.104Z,7.3
2023-05-06T23:32:39.525Z,7.8
2023-05-06T23:34:45.214Z,10
2023-05-06T23:38:56.790Z,7.5
2023-05-06T23:41:05.522Z,8.3
2023-05-06T23:43:11.369Z,8.5
2023-05-06T23:46:21.565Z,7.7
2023-05-06T23:48:27.289Z,8.2
2023-05-06T23:50:33.106Z,8.9
2023-05-06T23:52:38.878Z,8.5
2023-05-06T23:56:53.395Z,7.5
